createdAt,value
2022-12-03T00:02:15.103Z,8.70
2022-12-03T00:04:41.586Z,9.35
2022-12-03T00:07:08.145Z,9.10
2022-12-03T00:09:34.802Z,9.47
2022-12-03T00:12:01.295Z,7.95
2022-12-03T00:14:27.725Z,8.57
2022-12-03T00:16:54.266Z,9.57
2022-12-03T00:19:20.634Z,8.85
2022-12-03T00:21:47.118Z,9.87
2022-12-03T00:24:13.515Z,9.48
2022-12-03T00:26:39.927Z,8.50
2022-12-03T00:29:06.368Z,8.48
2022-12-03T00:31:32.862Z,8.38
2022-12-03T00:33:59.396Z,9.53
2022-12-03T00:36:25.742Z,9.23
2022-12-03T00:38:52.103Z,8.85
2022-12-03T00:41:18.715Z,9.13
2022-12-03T00:43:45.149Z,8.65
2022-12-03T00:46:11.677Z,7.77
2022-12-03T00:48:38.294Z,9.27
2022-12-03T00:51:04.951Z,10.15
2022-12-03T00:53:31.462Z,9.32
2022-12-03T00:55:57.997Z,8.88
2022-12-03T00:58:24.369Z,8.87
2022-12-03T01:00:50.964Z,9.68
2022-12-03T01:03:17.433Z,9.77
2022-12-03T01:05:43.805Z,9.20
2022-12-03T01:08:10.425Z,10.55
2022-12-03T01:10:36.905Z,9.20
2022-12-03T01:13:03.426Z,9.43
2022-12-03T01:15:29.814Z,9.40
2022-12-03T01:17:56.327Z,10.00
2022-12-03T01:20:22.727Z,8.57
2022-12-03T01:22:49.126Z,9.20
2022-12-03T01:25:15.780Z,9.25
2022-12-03T01:27:42.583Z,9.48
2022-12-03T01:30:10.853Z,9.98
2022-12-03T01:32:37.288Z,9.05
2022-12-03T01:35:04.582Z,9.00
2022-12-03T01:37:31.399Z,9.10
2022-12-03T01:39:57.801Z,8.13
2022-12-03T01:42:31.361Z,8.40
2022-12-03T01:44:59.752Z,9.13
2022-12-03T01:47:32.157Z,9.87
2022-12-03T01:50:13.793Z,9.30
2022-12-03T01:52:40.836Z,9.35
2022-12-03T01:55:13.938Z,9.20
2022-12-03T01:57:45.202Z,9.35
2022-12-03T02:00:17.891Z,9.93
2022-12-03T02:02:45.076Z,9.48
2022-12-03T02:05:18.648Z,8.80
2022-12-03T02:07:45.527Z,9.00
2022-12-03T02:10:15.099Z,9.02
2022-12-03T02:12:47.446Z,8.70
2022-12-03T02:15:14.385Z,9.05
2022-12-03T02:17:42.374Z,8.93
2022-12-03T02:20:10.919Z,8.75
2022-12-03T02:22:46.189Z,9.15
2022-12-03T02:25:25.961Z,9.00
2022-12-03T02:27:54.901Z,8.52
2022-12-03T02:30:23.882Z,9.35
2022-12-03T02:32:51.813Z,9.23
2022-12-03T02:35:27.462Z,9.85
2022-12-03T02:38:02.604Z,8.90
2022-12-03T02:40:32.426Z,9.85
2022-12-03T02:43:01.132Z,8.45
2022-12-03T02:45:39.321Z,9.50
2022-12-03T02:48:09.789Z,8.75
2022-12-03T02:50:40.316Z,9.77
2022-12-03T02:53:11.719Z,8.13
2022-12-03T02:55:38.854Z,9.82
2022-12-03T02:58:05.792Z,9.13
2022-12-03T03:00:33.435Z,9.80
2022-12-03T03:03:01.003Z,10.33
2022-12-03T03:05:27.539Z,9.38
2022-12-03T03:07:54.315Z,8.77
2022-12-03T03:10:23.464Z,8.32
2022-12-03T03:12:52.375Z,9.30
2022-12-03T03:15:18.887Z,8.30
2022-12-03T03:17:45.636Z,9.20
2022-12-03T03:20:13.410Z,9.32
2022-12-03T03:22:42.096Z,9.38
2022-12-03T03:25:12.494Z,9.68
2022-12-03T03:27:41.168Z,8.77
2022-12-03T03:30:09.584Z,9.50
2022-12-03T03:32:37.074Z,9.38
2022-12-03T03:35:04.102Z,9.05
2022-12-03T03:37:30.831Z,9.05
2022-12-03T03:39:57.402Z,9.17
2022-12-03T03:42:24.213Z,10.20
2022-12-03T03:44:51.141Z,10.30
2022-12-03T03:47:18.335Z,9.60
2022-12-03T03:49:45.059Z,10.20
2022-12-03T03:52:11.816Z,9.03
2022-12-03T03:54:39.399Z,9.38
2022-12-03T03:57:06.096Z,8.52
2022-12-03T03:59:32.545Z,9.02
2022-12-03T04:01:58.916Z,8.95
2022-12-03T04:04:35.205Z,9.07
2022-12-03T04:07:02.087Z,9.68
2022-12-03T04:09:28.448Z,9.02
2022-12-03T04:12:13.422Z,9.93
2022-12-03T04:14:39.765Z,9.32
2022-12-03T04:17:06.198Z,9.70
2022-12-03T04:19:32.505Z,9.05
2022-12-03T04:22:17.606Z,9.68
2022-12-03T04:24:44.072Z,10.07
2022-12-03T04:27:29.165Z,8.75
2022-12-03T04:29:55.515Z,9.90
2022-12-03T04:32:40.365Z,10.35
2022-12-03T04:35:25.665Z,9.35
2022-12-03T04:37:52.083Z,10.15
2022-12-03T04:40:41.310Z,10.45
2022-12-03T04:43:07.896Z,10.33
2022-12-03T04:45:34.343Z,10.07
2022-12-03T04:48:00.779Z,10.02
2022-12-03T04:50:27.199Z,10.20
2022-12-03T04:52:53.631Z,10.40
2022-12-03T04:55:20.206Z,9.97
2022-12-03T04:57:46.562Z,9.55
2022-12-03T05:00:13.677Z,9.70
2022-12-03T05:02:40.512Z,9.73
2022-12-03T05:05:07.310Z,8.95
2022-12-03T05:07:33.866Z,9.03
2022-12-03T05:10:00.359Z,10.65
2022-12-03T05:12:26.863Z,8.85
2022-12-03T05:14:53.547Z,10.02
2022-12-03T05:17:20.091Z,10.57
2022-12-03T05:20:05.401Z,11.00
2022-12-03T05:22:31.830Z,10.63
2022-12-03T05:24:58.300Z,10.55
2022-12-03T05:27:24.664Z,10.95
2022-12-03T05:29:51.358Z,10.85
2022-12-03T05:32:17.946Z,11.03
2022-12-03T05:34:44.391Z,9.80
2022-12-03T05:37:11.114Z,10.50
2022-12-03T05:39:38.012Z,11.43
2022-12-03T05:42:23.014Z,11.77
2022-12-03T05:44:49.528Z,11.17
2022-12-03T05:47:16.038Z,13.60
2022-12-03T05:49:42.726Z,11.80
2022-12-03T05:52:09.292Z,13.40
2022-12-03T05:54:35.614Z,13.20
2022-12-03T05:57:01.974Z,12.60
2022-12-03T05:59:28.307Z,12.10
2022-12-03T06:01:54.726Z,11.57
2022-12-03T06:04:21.168Z,12.90
2022-12-03T06:06:47.506Z,12.00
2022-12-03T06:09:13.866Z,11.27
2022-12-03T06:11:40.571Z,12.32
2022-12-03T06:14:06.896Z,11.43
2022-12-03T06:16:33.326Z,12.57
2022-12-03T06:18:59.881Z,11.18
2022-12-03T06:21:26.243Z,10.67
2022-12-03T06:23:52.648Z,11.20
2022-12-03T06:26:19.035Z,12.82
2022-12-03T06:28:47.507Z,10.93
2022-12-03T06:31:14.005Z,12.00
2022-12-03T06:33:40.458Z,12.20
2022-12-03T06:36:07.117Z,10.98
2022-12-03T06:38:33.568Z,11.73
2022-12-03T06:40:59.933Z,11.27
2022-12-03T06:43:26.405Z,12.52
2022-12-03T06:45:53.155Z,11.73
2022-12-03T06:48:19.536Z,10.93
2022-12-03T06:50:46.059Z,11.75
2022-12-03T06:53:12.393Z,11.52
2022-12-03T06:55:38.872Z,12.63
2022-12-03T06:58:05.319Z,11.77
2022-12-03T07:00:31.747Z,11.80
2022-12-03T07:02:58.196Z,10.75
2022-12-03T07:05:24.603Z,11.82
2022-12-03T07:07:52.302Z,10.70
2022-12-03T07:10:19.229Z,11.00
2022-12-03T07:12:45.654Z,12.02
2022-12-03T07:15:12.304Z,11.45
2022-12-03T07:17:39.007Z,10.85
2022-12-03T07:20:06.187Z,10.57
2022-12-03T07:22:32.819Z,11.13
2022-12-03T07:24:59.188Z,11.60
2022-12-03T07:27:25.759Z,11.35
2022-12-03T07:29:52.122Z,10.40
2022-12-03T07:32:18.491Z,11.60
2022-12-03T07:34:44.930Z,11.17
2022-12-03T07:37:11.371Z,11.80
2022-12-03T07:39:37.835Z,10.75
2022-12-03T07:42:04.593Z,11.52
2022-12-03T07:44:31.965Z,10.55
2022-12-03T07:46:58.671Z,12.27
2022-12-03T07:49:26.612Z,12.05
2022-12-03T07:51:56.995Z,11.73
2022-12-03T07:54:24.507Z,11.50
2022-12-03T07:56:50.883Z,11.65
2022-12-03T07:59:17.664Z,11.40
2022-12-03T08:01:44.860Z,11.77
2022-12-03T08:04:14.653Z,11.40
2022-12-03T08:06:41.623Z,11.55
2022-12-03T08:09:09.967Z,11.35
2022-12-03T08:11:40.092Z,9.63
2022-12-03T08:14:15.059Z,11.73
2022-12-03T08:16:42.893Z,11.20
2022-12-03T08:19:13.780Z,11.10
2022-12-03T08:21:40.615Z,10.93
2022-12-03T08:24:19.154Z,11.97
2022-12-03T08:26:47.928Z,11.15
2022-12-03T08:29:17.848Z,11.70
2022-12-03T08:31:54.564Z,12.38
2022-12-03T08:34:23.718Z,11.60
2022-12-03T08:36:56.016Z,11.80
2022-12-03T08:39:33.156Z,12.07
2022-12-03T08:42:32.487Z,12.52
2022-12-03T08:45:40.272Z,11.15
2022-12-03T08:48:18.942Z,12.70
2022-12-03T08:50:45.862Z,12.23
2022-12-03T08:53:37.662Z,13.05
2022-12-03T08:56:27.087Z,11.07
2022-12-03T08:59:30.449Z,11.25
2022-12-03T09:01:58.590Z,13.27
2022-12-03T09:04:38.991Z,13.43
2022-12-03T09:07:05.549Z,12.20
2022-12-03T09:09:32.054Z,11.60
2022-12-03T09:11:58.475Z,13.18
2022-12-03T09:14:24.943Z,12.40
2022-12-03T09:16:55.542Z,12.53
2022-12-03T09:19:26.982Z,12.35
2022-12-03T09:21:54.455Z,13.05
2022-12-03T09:24:21.123Z,13.70
2022-12-03T09:26:47.545Z,11.73
2022-12-03T09:29:14.018Z,11.93
2022-12-03T09:31:41.088Z,13.07
2022-12-03T09:34:07.874Z,12.75
2022-12-03T09:36:34.334Z,13.15
2022-12-03T09:39:00.967Z,12.10
2022-12-03T09:41:27.730Z,12.83
2022-12-03T09:44:17.186Z,13.23
2022-12-03T09:46:42.394Z,10.90
2022-12-03T09:49:15.823Z,9.90
2022-12-03T09:51:43.990Z,9.93
2022-12-03T09:54:18.359Z,10.63
2022-12-03T09:56:44.744Z,10.15
2022-12-03T09:59:15.183Z,9.77
2022-12-03T10:01:42.176Z,9.60
2022-12-03T10:04:08.913Z,9.93
2022-12-03T10:06:38.845Z,10.23
2022-12-03T10:09:11.182Z,9.73
2022-12-03T10:11:37.999Z,9.55
2022-12-03T10:14:04.787Z,10.18
2022-12-03T10:16:31.408Z,9.27
2022-12-03T10:19:01.068Z,10.43
2022-12-03T10:21:32.192Z,9.98
2022-12-03T10:24:17.838Z,10.80
2022-12-03T10:26:45.691Z,10.23
2022-12-03T10:29:17.452Z,9.43
2022-12-03T10:31:44.315Z,10.50
2022-12-03T10:34:11.560Z,10.23
2022-12-03T10:36:38.241Z,11.18
2022-12-03T10:39:13.591Z,10.45
2022-12-03T10:41:41.992Z,10.27
2022-12-03T10:44:18.937Z,10.23
2022-12-03T10:47:03.980Z,10.38
2022-12-03T10:49:30.641Z,11.35
2022-12-03T10:51:57.446Z,11.48
2022-12-03T10:54:26.365Z,9.50
2022-12-03T10:56:53.046Z,11.03
2022-12-03T10:59:25.202Z,10.43
2022-12-03T11:01:52.506Z,10.95
2022-12-03T11:04:32.791Z,10.48
2022-12-03T11:07:01.809Z,10.68
2022-12-03T11:09:32.155Z,11.60
2022-12-03T11:12:07.402Z,11.15
2022-12-03T11:14:49.036Z,12.63
2022-12-03T11:17:44.235Z,11.32
2022-12-03T11:20:18.088Z,10.48
2022-12-03T11:22:49.166Z,10.03
2022-12-03T11:25:37.075Z,9.73
2022-12-03T11:28:15.175Z,10.10
2022-12-03T11:30:50.874Z,10.63
2022-12-03T11:33:24.967Z,10.80
2022-12-03T11:36:03.298Z,10.53
2022-12-03T11:38:47.370Z,9.30
2022-12-03T11:41:28.167Z,9.85
2022-12-03T11:43:57.491Z,9.50
2022-12-03T11:46:36.155Z,9.25
2022-12-03T11:49:23.246Z,8.57
2022-12-03T11:51:50.022Z,7.45
2022-12-03T11:54:18.927Z,7.65
2022-12-03T11:56:49.486Z,7.35
2022-12-03T11:59:17.155Z,7.32
2022-12-03T12:01:44.365Z,7.73
2022-12-03T12:04:31.773Z,7.70
2022-12-03T12:06:58.317Z,7.40
2022-12-03T12:09:51.259Z,7.60
2022-12-03T12:12:36.877Z,7.68
2022-12-03T12:15:35.440Z,6.67
2022-12-03T12:18:38.917Z,7.88
2022-12-03T12:21:42.122Z,7.53
2022-12-03T12:24:43.529Z,8.50
2022-12-03T12:27:12.629Z,8.73
2022-12-03T12:29:41.891Z,8.80
2022-12-03T12:32:15.240Z,8.90
2022-12-03T12:34:47.771Z,7.03
2022-12-03T12:37:28.172Z,5.30
2022-12-03T12:39:57.121Z,8.25
2022-12-03T12:42:34.023Z,8.37
2022-12-03T12:45:18.952Z,8.35
2022-12-03T12:48:10.258Z,7.38
2022-12-03T12:50:38.160Z,8.55
2022-12-03T12:53:10.467Z,8.80
2022-12-03T12:55:38.297Z,8.10
2022-12-03T12:58:13.444Z,9.32
2022-12-03T13:00:40.017Z,8.82
2022-12-03T13:03:07.698Z,8.38
2022-12-03T13:05:42.767Z,8.93
2022-12-03T13:08:27.824Z,9.57
2022-12-03T13:10:57.500Z,8.50
2022-12-03T13:13:28.906Z,10.10
2022-12-03T13:15:59.886Z,10.32
2022-12-03T13:18:31.162Z,10.10
2022-12-03T13:20:57.931Z,10.07
2022-12-03T13:23:31.139Z,10.70
2022-12-03T13:26:06.836Z,10.40
2022-12-03T13:28:41.747Z,10.70
2022-12-03T13:31:21.917Z,11.13
2022-12-03T13:33:49.120Z,11.00
2022-12-03T13:36:16.739Z,12.55
2022-12-03T13:38:44.697Z,11.52
2022-12-03T13:41:38.886Z,11.98
2022-12-03T13:44:15.752Z,11.63
2022-12-03T13:46:42.260Z,12.43
2022-12-03T13:49:19.658Z,11.40
2022-12-03T13:51:47.186Z,13.13
2022-12-03T13:54:19.338Z,12.80
2022-12-03T13:56:46.035Z,12.68
2022-12-03T13:59:12.746Z,13.47
2022-12-03T14:01:39.416Z,12.60
2022-12-03T14:04:05.989Z,13.35
2022-12-03T14:06:33.655Z,11.00
2022-12-03T14:09:00.341Z,11.75
2022-12-03T14:11:45.381Z,11.37
2022-12-03T14:14:11.819Z,12.65
2022-12-03T14:16:38.298Z,12.25
2022-12-03T14:19:04.811Z,12.05
2022-12-03T14:21:31.295Z,12.57
2022-12-03T14:23:57.672Z,10.97
2022-12-03T14:26:24.085Z,11.05
2022-12-03T14:28:50.474Z,10.63
2022-12-03T14:31:17.002Z,10.30
2022-12-03T14:33:43.530Z,10.50
2022-12-03T14:36:10.014Z,10.00
2022-12-03T14:38:36.404Z,11.07
2022-12-03T14:41:02.927Z,10.88
2022-12-03T14:43:29.249Z,9.68
2022-12-03T14:45:55.690Z,9.55
2022-12-03T14:48:22.216Z,8.97
2022-12-03T14:50:48.586Z,9.43
2022-12-03T14:53:15.096Z,9.85
2022-12-03T14:55:41.472Z,10.55
2022-12-03T14:58:08.023Z,10.45
2022-12-03T15:00:34.393Z,10.10
2022-12-03T15:03:00.820Z,8.80
2022-12-03T15:05:29.054Z,9.13
2022-12-03T15:07:56.108Z,9.27
2022-12-03T15:10:22.567Z,9.45
2022-12-03T15:12:48.933Z,8.73
2022-12-03T15:15:15.339Z,9.77
2022-12-03T15:17:45.489Z,10.40
2022-12-03T15:20:12.733Z,9.43
2022-12-03T15:22:39.238Z,10.93
2022-12-03T15:25:07.558Z,9.40
2022-12-03T15:27:34.009Z,10.98
2022-12-03T15:30:00.382Z,11.02
2022-12-03T15:32:26.867Z,11.07
2022-12-03T15:34:53.459Z,11.23
2022-12-03T15:37:19.910Z,11.57
2022-12-03T15:39:48.762Z,11.68
2022-12-03T15:42:15.460Z,12.18
2022-12-03T15:44:41.786Z,12.57
2022-12-03T15:47:08.106Z,12.68
2022-12-03T15:49:34.497Z,12.50
2022-12-03T15:52:00.993Z,12.80
2022-12-03T15:54:27.354Z,14.30
2022-12-03T15:56:57.230Z,13.35
2022-12-03T15:59:24.018Z,13.85
2022-12-03T16:01:50.405Z,14.00
2022-12-03T16:04:17.099Z,13.60
2022-12-03T16:06:43.472Z,13.80
2022-12-03T16:09:09.934Z,13.77
2022-12-03T16:11:36.346Z,13.98
2022-12-03T16:14:02.777Z,13.57
2022-12-03T16:16:29.223Z,13.77
2022-12-03T16:18:55.718Z,14.15
2022-12-03T16:21:26.677Z,13.63
2022-12-03T16:23:54.117Z,13.93
2022-12-03T16:26:20.500Z,13.90
2022-12-03T16:28:46.881Z,14.13
2022-12-03T16:31:13.345Z,14.38
2022-12-03T16:33:39.794Z,14.45
2022-12-03T16:36:06.465Z,13.07
2022-12-03T16:38:33.577Z,13.97
2022-12-03T16:41:01.149Z,13.05
2022-12-03T16:43:27.842Z,12.88
2022-12-03T16:46:20.760Z,13.68
2022-12-03T16:48:48.239Z,12.48
2022-12-03T16:51:15.067Z,14.00
2022-12-03T16:53:42.179Z,14.63
2022-12-03T16:56:08.746Z,14.73
2022-12-03T16:58:35.104Z,13.55
2022-12-03T17:01:01.740Z,14.18
2022-12-03T17:03:33.589Z,15.30
2022-12-03T17:06:00.937Z,14.55
2022-12-03T17:08:27.513Z,14.05
2022-12-03T17:10:54.076Z,13.70
2022-12-03T17:13:20.661Z,14.25
2022-12-03T17:15:47.100Z,15.03
2022-12-03T17:18:13.588Z,14.07
2022-12-03T17:20:40.010Z,14.40
2022-12-03T17:23:06.710Z,14.30
2022-12-03T17:25:34.370Z,15.05
2022-12-03T17:28:01.358Z,13.40
2022-12-03T17:30:27.990Z,14.30
2022-12-03T17:32:54.367Z,14.38
2022-12-03T17:35:20.892Z,13.73
2022-12-03T17:37:47.259Z,13.98
2022-12-03T17:40:16.857Z,13.87
2022-12-03T17:42:43.411Z,14.95
2022-12-03T17:45:10.327Z,14.38
2022-12-03T17:47:36.796Z,15.45
2022-12-03T17:50:03.440Z,14.43
2022-12-03T17:52:29.812Z,14.90
2022-12-03T17:55:10.747Z,13.93
2022-12-03T17:57:39.403Z,13.73
2022-12-03T18:00:06.423Z,14.45
2022-12-03T18:02:32.880Z,15.50
2022-12-03T18:04:59.419Z,15.00
2022-12-03T18:07:25.872Z,14.40
2022-12-03T18:09:53.328Z,14.23
2022-12-03T18:12:19.847Z,14.93
2022-12-03T18:14:46.383Z,14.85
2022-12-03T18:17:13.791Z,13.77
2022-12-03T18:19:40.122Z,14.27
2022-12-03T18:22:07.067Z,15.07
2022-12-03T18:24:33.463Z,14.32
2022-12-03T18:26:59.831Z,15.48
2022-12-03T18:29:26.263Z,15.90
2022-12-03T18:31:52.748Z,15.27
2022-12-03T18:34:19.199Z,14.07
2022-12-03T18:36:45.834Z,13.80
2022-12-03T18:39:24.248Z,14.32
2022-12-03T18:41:50.812Z,13.27
2022-12-03T18:44:17.197Z,13.57
2022-12-03T18:46:58.903Z,13.85
2022-12-03T18:49:25.356Z,14.75
2022-12-03T18:51:58.726Z,12.95
2022-12-03T18:54:25.947Z,14.43
2022-12-03T18:56:53.467Z,13.65
2022-12-03T18:59:19.810Z,13.48
2022-12-03T19:01:46.239Z,13.77
2022-12-03T19:04:12.819Z,13.77
2022-12-03T19:06:40.274Z,14.00
2022-12-03T19:09:06.815Z,12.95
2022-12-03T19:11:34.082Z,13.55
2022-12-03T19:14:02.811Z,12.55
2022-12-03T19:16:29.315Z,13.10
2022-12-03T19:18:55.964Z,14.27
2022-12-03T19:21:22.679Z,12.88
2022-12-03T19:24:22.155Z,13.02
2022-12-03T19:26:35.495Z,13.18
2022-12-03T19:29:02.955Z,13.15
2022-12-03T19:31:33.051Z,12.70
2022-12-03T19:34:00.083Z,13.85
2022-12-03T19:36:29.164Z,13.07
2022-12-03T19:38:57.607Z,12.30
2022-12-03T19:41:27.293Z,13.75
2022-12-03T19:43:55.636Z,14.43
2022-12-03T19:46:25.187Z,13.02
2022-12-03T19:48:51.917Z,13.13
2022-12-03T19:51:35.425Z,13.07
2022-12-03T19:54:06.809Z,13.55
2022-12-03T19:56:34.437Z,12.47
2022-12-03T19:59:00.951Z,13.02
2022-12-03T20:01:31.611Z,14.77
2022-12-03T20:04:00.316Z,12.57
2022-12-03T20:06:29.310Z,13.38
2022-12-03T20:09:00.599Z,13.17
2022-12-03T20:11:30.507Z,12.38
2022-12-03T20:14:03.020Z,13.93
2022-12-03T20:16:30.464Z,13.98
2022-12-03T20:19:03.750Z,13.20
2022-12-03T20:21:33.384Z,14.30
2022-12-03T20:24:00.142Z,13.88
2022-12-03T20:26:27.768Z,15.75
2022-12-03T20:28:55.514Z,13.85
2022-12-03T20:31:24.387Z,15.13
2022-12-03T20:33:54.289Z,13.97
2022-12-03T20:36:22.555Z,19.35
2022-12-03T20:38:53.148Z,13.77
2022-12-03T20:41:19.779Z,14.55
2022-12-03T20:43:46.452Z,13.35
2022-12-03T20:46:18.881Z,13.30
2022-12-03T20:48:45.713Z,12.25
2022-12-03T20:51:14.950Z,12.57
2022-12-03T20:53:42.226Z,13.13
2022-12-03T20:56:09.396Z,13.68
2022-12-03T20:58:36.059Z,13.40
2022-12-03T21:01:15.707Z,13.32
2022-12-03T21:03:42.805Z,13.35
2022-12-03T21:06:10.191Z,13.95
2022-12-03T21:08:41.399Z,13.23
2022-12-03T21:11:20.035Z,12.33
2022-12-03T21:13:47.317Z,12.35
2022-12-03T21:16:17.659Z,13.35
2022-12-03T21:18:45.252Z,12.00
2022-12-03T21:21:13.757Z,14.07
2022-12-03T21:23:40.420Z,12.63
2022-12-03T21:26:09.676Z,13.40
2022-12-03T21:28:38.541Z,11.65
2022-12-03T21:31:07.306Z,13.75
2022-12-03T21:33:34.436Z,13.45
2022-12-03T21:36:01.391Z,13.87
2022-12-03T21:38:29.068Z,13.32
2022-12-03T21:40:56.483Z,13.55
2022-12-03T21:43:23.368Z,12.93
2022-12-03T21:45:50.212Z,13.50
2022-12-03T21:48:17.520Z,12.13
2022-12-03T21:50:44.889Z,14.55
2022-12-03T21:53:12.093Z,13.43
2022-12-03T21:55:40.540Z,12.70
2022-12-03T21:58:08.278Z,13.50
2022-12-03T22:00:35.147Z,13.23
2022-12-03T22:03:01.634Z,13.02
2022-12-03T22:05:28.064Z,12.40
2022-12-03T22:07:54.552Z,12.93
2022-12-03T22:10:21.014Z,11.95
2022-12-03T22:12:47.347Z,14.03
2022-12-03T22:15:18.756Z,14.32
2022-12-03T22:17:45.712Z,14.32
2022-12-03T22:20:12.691Z,14.15
2022-12-03T22:22:39.130Z,13.15
2022-12-03T22:25:05.700Z,14.77
2022-12-03T22:27:32.394Z,13.30
2022-12-03T22:29:58.778Z,13.63
2022-12-03T22:32:25.680Z,14.57
2022-12-03T22:34:52.017Z,12.85
2022-12-03T22:37:18.498Z,13.87
2022-12-03T22:39:44.952Z,13.85
2022-12-03T22:42:11.357Z,14.25
2022-12-03T22:44:37.695Z,13.93
2022-12-03T22:47:04.421Z,13.80
2022-12-03T22:49:30.826Z,15.87
2022-12-03T22:51:57.233Z,13.80
2022-12-03T22:54:24.299Z,12.63
2022-12-03T22:56:51.108Z,12.32
2022-12-03T22:59:17.443Z,14.27
2022-12-03T23:01:43.912Z,14.00
2022-12-03T23:04:11.436Z,13.57
2022-12-03T23:06:38.369Z,13.63
2022-12-03T23:09:06.184Z,14.45
2022-12-03T23:11:32.642Z,13.38
2022-12-03T23:13:59.141Z,14.40
2022-12-03T23:16:28.855Z,14.98
2022-12-03T23:18:57.026Z,15.07
2022-12-03T23:21:29.761Z,14.57
2022-12-03T23:23:56.858Z,14.02
2022-12-03T23:26:23.227Z,14.50
2022-12-03T23:28:49.649Z,14.40
2022-12-03T23:31:26.223Z,14.55
2022-12-03T23:33:53.187Z,14.43
2022-12-03T23:36:20.823Z,14.10
2022-12-03T23:38:47.174Z,15.37
2022-12-03T23:41:16.040Z,14.13
2022-12-03T23:43:42.636Z,13.90
2022-12-03T23:46:14.741Z,14.45
2022-12-03T23:48:41.613Z,14.48
2022-12-03T23:51:14.362Z,16.03
2022-12-03T23:53:41.204Z,15.52
2022-12-03T23:56:29.256Z,15.27
2022-12-03T23:58:57.321Z,15.32
